Terminal Aerodrome Forecast
Issued by NWS St Louis, MO

Home | Current Version | Previous Version | Text Only | Print | Product List | Glossary On
Versions: 1 2 3 4 5 6 7 8 9 10 11 12 13 14 15 16 17
703
FTUS43 KLSX 201024 AAA
TAFCOU
TAF AMD
KCOU 201024Z 2010/2106 11010KT P6SM -SHRA VCTS BKN035CB
      TEMPO 2010/2012 3SM -SHRA OVC015
     FM201200 16009KT P6SM VCSH BKN025
     FM201600 17010G18KT P6SM BKN040
     FM201800 21011G18KT P6SM VCSH OVC060
     FM202300 24010G16KT P6SM BKN070
     FM210300 26010KT P6SM SCT150=

USA.gov is the U.S. government's official web portal to all federal, state and local government web resources and services.